Time;durP1;ratioP1;P1;durP2;ratioP2;P2;SDS_P1;SDS_P2;PMS_P1;PMS_P2;Temp;Humidity;BMP_temperature;BMP_pressure;BME280_temperature;BME280_humidity;BME280_pressure;Samples;Min_cycle;Max_cycle;Signal;HPM_P1;HPM_P2
2023/03/17 00:01:20;;;;;;;8.52;3.70;;;;;;;;;;5078812;28;20436;-77
2023/03/17 00:03:49;;;;;;;7.18;3.88;;;;;;;;;;5074779;28;20051;-78
2023/03/17 00:06:26;;;;;;;8.73;3.80;;;;;;;;;;5072364;28;21252;-77
2023/03/17 00:08:52;;;;;;;6.43;3.65;;;;;;;;;;5082226;28;20044;-78
2023/03/17 00:11:18;;;;;;;7.18;4.00;;;;;;;;;;5093726;28;20151;-78
2023/03/17 00:13:48;;;;;;;7.05;4.10;;;;;;;;;;5078781;28;20474;-78
2023/03/17 00:16:21;;;;;;;7.82;4.10;;;;;;;;;;5092340;28;20048;-78
2023/03/17 00:18:48;;;;;;;7.18;3.65;;;;;;;;;;5093647;28;20080;-78
2023/03/17 00:21:15;;;;;;;8.52;4.22;;;;;;;;;;5093445;28;20040;-78
2023/03/17 00:23:44;;;;;;;9.65;4.47;;;;;;;;;;5090887;28;20043;-78
2023/03/17 00:26:11;;;;;;;8.80;4.40;;;;;;;;;;5073344;28;20060;-78
2023/03/17 00:28:38;;;;;;;7.00;4.25;;;;;;;;;;5073297;28;20045;-78
2023/03/17 00:31:11;;;;;;;7.40;4.30;;;;;;;;;;5075446;28;20114;-78
2023/03/17 00:33:38;;;;;;;8.32;5.22;;;;;;;;;;5078654;28;20113;-78
2023/03/17 00:36:06;;;;;;;7.40;4.20;;;;;;;;;;5080019;28;20048;-78
2023/03/17 00:38:32;;;;;;;7.60;4.47;;;;;;;;;;5072698;28;20037;-77
2023/03/17 00:40:59;;;;;;;9.63;4.60;;;;;;;;;;5082522;28;20048;-77
2023/03/17 00:43:25;;;;;;;8.20;5.05;;;;;;;;;;5076484;28;20410;-78
2023/03/17 00:45:51;;;;;;;9.45;4.60;;;;;;;;;;5080147;28;20098;-75
2023/03/17 00:48:20;;;;;;;7.65;4.63;;;;;;;;;;5071261;28;20049;-76
2023/03/17 00:50:49;;;;;;;8.00;4.47;;;;;;;;;;5069958;28;20058;-76
2023/03/17 00:53:16;;;;;;;10.40;4.63;;;;;;;;;;5071288;28;20110;-76
2023/03/17 00:55:43;;;;;;;9.40;4.57;;;;;;;;;;5071012;28;20036;-77
2023/03/17 00:58:13;;;;;;;7.53;4.28;;;;;;;;;;5070938;28;20041;-78
2023/03/17 01:00:40;;;;;;;8.18;4.63;;;;;;;;;;5075456;28;20101;-77
2023/03/17 01:03:10;;;;;;;8.07;4.70;;;;;;;;;;5071852;28;20063;-78
2023/03/17 01:05:36;;;;;;;9.00;4.75;;;;;;;;;;5072578;28;20161;-77
2023/03/17 01:08:03;;;;;;;10.07;4.90;;;;;;;;;;5080185;28;20066;-77
2023/03/17 01:10:29;;;;;;;9.32;4.65;;;;;;;;;;5082142;28;20433;-78
2023/03/17 01:12:59;;;;;;;7.47;4.22;;;;;;;;;;5092898;28;20051;-78
2023/03/17 01:15:27;;;;;;;8.38;4.80;;;;;;;;;;5072642;28;20040;-78
2023/03/17 01:17:54;;;;;;;9.57;5.10;;;;;;;;;;5072610;28;20521;-78
2023/03/17 01:20:41;;;;;;;7.30;4.60;;;;;;;;;;5073435;28;20055;-78
2023/03/17 01:23:08;;;;;;;8.15;5.03;;;;;;;;;;5072709;28;20036;-78
2023/03/17 01:25:34;;;;;;;9.63;5.00;;;;;;;;;;5072694;28;20437;-78
2023/03/17 01:28:01;;;;;;;9.00;4.90;;;;;;;;;;5072127;28;20055;-78
2023/03/17 01:30:36;;;;;;;9.55;5.45;;;;;;;;;;5092801;28;20040;-78
2023/03/17 01:33:02;;;;;;;8.23;5.15;;;;;;;;;;5086687;28;20430;-78
2023/03/17 01:35:29;;;;;;;9.82;5.30;;;;;;;;;;5070896;28;20058;-78
2023/03/17 01:37:56;;;;;;;7.80;4.93;;;;;;;;;;5082227;28;20123;-78
2023/03/17 01:40:24;;;;;;;11.18;5.32;;;;;;;;;;5080384;28;20048;-78
2023/03/17 01:43:08;;;;;;;8.50;5.10;;;;;;;;;;5079419;28;20051;-77
2023/03/17 01:45:53;;;;;;;8.10;5.25;;;;;;;;;;5080757;28;20059;-77
2023/03/17 01:48:20;;;;;;;8.32;5.43;;;;;;;;;;5070090;28;20462;-78
2023/03/17 01:50:47;;;;;;;8.70;5.75;;;;;;;;;;5072324;28;20543;-77
2023/03/17 01:53:14;;;;;;;9.65;5.18;;;;;;;;;;5088012;28;20044;-77
2023/03/17 01:55:41;;;;;;;9.32;5.60;;;;;;;;;;5070253;28;20379;-77
2023/03/17 01:58:08;;;;;;;9.13;4.93;;;;;;;;;;5071015;28;20543;-77
2023/03/17 02:00:34;;;;;;;8.90;5.65;;;;;;;;;;5076795;28;20463;-77
2023/03/17 02:03:00;;;;;;;9.23;5.50;;;;;;;;;;5079044;28;20410;-78
2023/03/17 02:05:28;;;;;;;7.53;5.30;;;;;;;;;;5073105;28;20189;-77
2023/03/17 02:07:55;;;;;;;8.20;5.50;;;;;;;;;;5078281;28;20060;-78
2023/03/17 02:10:23;;;;;;;10.05;5.57;;;;;;;;;;5076132;28;20052;-77
2023/03/17 02:12:52;;;;;;;9.00;5.60;;;;;;;;;;5076631;28;20041;-77
2023/03/17 02:15:18;;;;;;;8.43;5.25;;;;;;;;;;5075720;28;20422;-77
2023/03/17 02:17:44;;;;;;;8.38;5.47;;;;;;;;;;5075622;28;20067;-77
2023/03/17 02:20:17;;;;;;;8.68;5.07;;;;;;;;;;5075496;28;20052;-77
2023/03/17 02:22:51;;;;;;;7.82;5.47;;;;;;;;;;5075665;28;20044;-77
2023/03/17 02:25:19;;;;;;;8.55;5.65;;;;;;;;;;5057620;28;20601;-78
2023/03/17 02:27:46;;;;;;;10.25;5.85;;;;;;;;;;5076254;28;20052;-78
2023/03/17 02:30:13;;;;;;;9.52;5.72;;;;;;;;;;5094671;28;20145;-78
2023/03/17 02:32:39;;;;;;;9.73;6.50;;;;;;;;;;5095501;28;20498;-77
2023/03/17 02:35:06;;;;;;;9.57;6.30;;;;;;;;;;5095777;28;20047;-77
2023/03/17 02:37:32;;;;;;;8.93;6.22;;;;;;;;;;5093690;28;20176;-77
2023/03/17 02:40:00;;;;;;;8.73;5.63;;;;;;;;;;5081181;28;20040;-78
2023/03/17 02:42:26;;;;;;;10.88;6.55;;;;;;;;;;5088016;28;20498;-77
2023/03/17 02:44:53;;;;;;;9.57;6.13;;;;;;;;;;5073445;28;20043;-77
2023/03/17 02:47:19;;;;;;;9.23;6.05;;;;;;;;;;5082003;28;20079;-77
2023/03/17 02:49:45;;;;;;;9.52;5.70;;;;;;;;;;5081637;28;20048;-78
2023/03/17 02:52:12;;;;;;;8.50;6.00;;;;;;;;;;5074066;28;20402;-77
2023/03/17 02:54:38;;;;;;;11.30;6.13;;;;;;;;;;5078141;28;20051;-78
2023/03/17 02:57:05;;;;;;;8.93;5.57;;;;;;;;;;5073293;28;20045;-78
2023/03/17 02:59:31;;;;;;;10.02;6.15;;;;;;;;;;5074306;28;20099;-77
2023/03/17 03:01:57;;;;;;;9.85;6.07;;;;;;;;;;5082812;28;20052;-78
2023/03/17 03:04:23;;;;;;;10.32;5.82;;;;;;;;;;5074778;28;20041;-78
2023/03/17 03:06:49;;;;;;;8.15;5.55;;;;;;;;;;5071865;28;20056;-77
2023/03/17 03:09:16;;;;;;;8.27;5.57;;;;;;;;;;5081918;28;20078;-78
2023/03/17 03:11:43;;;;;;;9.75;5.90;;;;;;;;;;5087080;28;20048;-77
2023/03/17 03:14:10;;;;;;;8.23;5.28;;;;;;;;;;5085656;28;20048;-78
2023/03/17 03:16:36;;;;;;;9.32;5.53;;;;;;;;;;5081714;28;20490;-77
2023/03/17 03:19:02;;;;;;;8.63;5.38;;;;;;;;;;5081637;28;20044;-77
2023/03/17 03:21:28;;;;;;;8.32;5.50;;;;;;;;;;5085919;28;20051;-77
2023/03/17 03:23:54;;;;;;;7.63;5.13;;;;;;;;;;5080776;28;20040;-77
2023/03/17 03:26:21;;;;;;;9.23;5.55;;;;;;;;;;5092548;28;20047;-77
2023/03/17 03:28:48;;;;;;;9.75;5.95;;;;;;;;;;5092000;28;20044;-77
2023/03/17 03:31:14;;;;;;;11.55;5.43;;;;;;;;;;5093497;28;20044;-77
2023/03/17 03:33:41;;;;;;;8.95;5.25;;;;;;;;;;5091655;28;20047;-77
2023/03/17 03:36:07;;;;;;;7.65;4.68;;;;;;;;;;5092091;28;20126;-77
2023/03/17 03:38:34;;;;;;;10.68;5.15;;;;;;;;;;5092459;28;20494;-77
2023/03/17 03:41:00;;;;;;;9.45;5.40;;;;;;;;;;5091883;28;20155;-77
2023/03/17 03:43:26;;;;;;;9.27;5.18;;;;;;;;;;5089137;28;20040;-77
2023/03/17 03:45:53;;;;;;;7.97;4.63;;;;;;;;;;5092719;28;20505;-77
2023/03/17 03:48:20;;;;;;;8.63;5.13;;;;;;;;;;5094128;28;20630;-77
2023/03/17 03:50:46;;;;;;;10.23;5.70;;;;;;;;;;5074901;28;20525;-77
2023/03/17 03:53:12;;;;;;;8.65;5.28;;;;;;;;;;5090080;28;20110;-77
2023/03/17 03:55:39;;;;;;;8.30;5.13;;;;;;;;;;5083903;28;20070;-77
2023/03/17 03:58:05;;;;;;;8.88;4.65;;;;;;;;;;5091768;28;20051;-77
2023/03/17 04:00:32;;;;;;;9.30;5.18;;;;;;;;;;5071322;28;20048;-77
2023/03/17 04:02:58;;;;;;;7.93;4.88;;;;;;;;;;5076092;28;20116;-77
2023/03/17 04:05:24;;;;;;;8.40;5.20;;;;;;;;;;5072262;28;20470;-77
2023/03/17 04:07:50;;;;;;;9.60;4.82;;;;;;;;;;5074305;28;20179;-77
2023/03/17 04:10:16;;;;;;;8.60;5.18;;;;;;;;;;5078068;28;20499;-77
2023/03/17 04:12:42;;;;;;;9.93;4.88;;;;;;;;;;5071139;28;20048;-77
2023/03/17 04:15:10;;;;;;;8.43;5.20;;;;;;;;;;5085956;28;20067;-77
2023/03/17 04:17:36;;;;;;;8.02;4.88;;;;;;;;;;5071279;28;20086;-77
2023/03/17 04:20:03;;;;;;;7.18;4.70;;;;;;;;;;5072729;28;20402;-77
2023/03/17 04:22:29;;;;;;;10.20;5.05;;;;;;;;;;5072954;28;20041;-77
2023/03/17 04:24:55;;;;;;;8.25;4.85;;;;;;;;;;5080698;28;20051;-77
2023/03/17 04:27:21;;;;;;;9.00;4.72;;;;;;;;;;5085115;28;20040;-77
2023/03/17 04:29:48;;;;;;;7.30;4.55;;;;;;;;;;5070942;28;20044;-77
2023/03/17 04:32:15;;;;;;;8.60;4.80;;;;;;;;;;5070432;28;20054;-78
2023/03/17 04:34:41;;;;;;;8.60;5.38;;;;;;;;;;5072140;28;20049;-77
2023/03/17 04:37:08;;;;;;;7.78;5.00;;;;;;;;;;5071716;28;20040;-77
2023/03/17 04:39:35;;;;;;;8.63;5.00;;;;;;;;;;5071178;28;20044;-77
2023/03/17 04:42:01;;;;;;;8.05;5.22;;;;;;;;;;5070440;28;20075;-77
2023/03/17 04:44:27;;;;;;;9.63;4.57;;;;;;;;;;5071053;28;20055;-78
2023/03/17 04:46:53;;;;;;;9.20;4.90;;;;;;;;;;5071387;28;20051;-77
2023/03/17 04:49:20;;;;;;;8.38;4.50;;;;;;;;;;5073494;28;20040;-77
2023/03/17 04:51:46;;;;;;;7.53;4.75;;;;;;;;;;5074789;28;20418;-78
2023/03/17 04:54:12;;;;;;;10.48;4.53;;;;;;;;;;5071782;28;20070;-77
2023/03/17 04:56:38;;;;;;;7.90;4.70;;;;;;;;;;5070803;28;20049;-78
2023/03/17 04:59:04;;;;;;;8.10;4.97;;;;;;;;;;5074074;28;20056;-77
2023/03/17 05:01:30;;;;;;;8.48;4.40;;;;;;;;;;5070952;28;20094;-77
2023/03/17 05:03:56;;;;;;;7.82;4.70;;;;;;;;;;5078997;28;20067;-77
2023/03/17 05:06:22;;;;;;;8.05;4.82;;;;;;;;;;5073088;28;20094;-77
2023/03/17 05:08:48;;;;;;;7.68;4.90;;;;;;;;;;5079571;28;20067;-77
2023/03/17 05:11:15;;;;;;;11.15;5.13;;;;;;;;;;5080845;28;20079;-78
2023/03/17 05:13:41;;;;;;;6.65;4.28;;;;;;;;;;5079949;28;20040;-77
2023/03/17 05:16:08;;;;;;;8.98;4.50;;;;;;;;;;5083176;28;20039;-77
2023/03/17 05:18:35;;;;;;;6.97;4.78;;;;;;;;;;5079891;28;20043;-77
2023/03/17 05:21:01;;;;;;;8.27;4.43;;;;;;;;;;5078668;28;20052;-78
2023/03/17 05:23:28;;;;;;;8.20;4.30;;;;;;;;;;5078499;28;20059;-77
2023/03/17 05:25:54;;;;;;;8.45;4.75;;;;;;;;;;5086226;28;20043;-77
2023/03/17 05:28:20;;;;;;;7.00;4.68;;;;;;;;;;5079261;28;20486;-77
2023/03/17 05:30:48;;;;;;;6.88;4.55;;;;;;;;;;5092807;28;20040;-77
2023/03/17 05:33:15;;;;;;;6.95;4.65;;;;;;;;;;5091422;28;20048;-77
2023/03/17 05:35:41;;;;;;;8.27;4.70;;;;;;;;;;5087929;28;20044;-77
2023/03/17 05:38:07;;;;;;;9.70;4.93;;;;;;;;;;5072211;28;20486;-77
2023/03/17 05:40:34;;;;;;;9.93;4.95;;;;;;;;;;5072601;28;20049;-77
2023/03/17 05:43:00;;;;;;;7.85;4.55;;;;;;;;;;5077851;28;20044;-77
2023/03/17 05:45:28;;;;;;;7.53;4.45;;;;;;;;;;5087120;28;20046;-77
2023/03/17 05:47:54;;;;;;;8.20;4.47;;;;;;;;;;5090693;28;20048;-77
2023/03/17 05:50:20;;;;;;;7.53;4.13;;;;;;;;;;5092037;28;20056;-78
2023/03/17 05:52:47;;;;;;;7.25;4.28;;;;;;;;;;5092972;28;20040;-78
2023/03/17 05:55:13;;;;;;;8.10;4.65;;;;;;;;;;5084471;28;20052;-78
2023/03/17 05:57:39;;;;;;;7.97;4.72;;;;;;;;;;5085515;28;20092;-78
2023/03/17 06:00:06;;;;;;;7.07;4.35;;;;;;;;;;5079497;28;20036;-78
2023/03/17 06:02:33;;;;;;;8.15;3.97;;;;;;;;;;5075791;28;20094;-77
2023/03/17 06:04:59;;;;;;;8.13;4.30;;;;;;;;;;5085002;28;20036;-77
2023/03/17 06:07:25;;;;;;;9.60;4.70;;;;;;;;;;5075488;28;20143;-77
2023/03/17 06:09:52;;;;;;;6.72;4.43;;;;;;;;;;5085089;28;20052;-77
2023/03/17 06:12:18;;;;;;;9.93;4.80;;;;;;;;;;5078009;28;20385;-78
2023/03/17 06:14:44;;;;;;;8.10;4.55;;;;;;;;;;5086809;28;20043;-77
2023/03/17 06:17:11;;;;;;;8.68;4.25;;;;;;;;;;5077150;28;20064;-77
2023/03/17 06:19:37;;;;;;;8.40;4.65;;;;;;;;;;5083296;28;20044;-77
2023/03/17 06:22:03;;;;;;;7.68;3.97;;;;;;;;;;5071891;28;20047;-78
2023/03/17 06:24:30;;;;;;;9.13;4.50;;;;;;;;;;5081189;28;20048;-76
2023/03/17 06:26:56;;;;;;;8.23;4.30;;;;;;;;;;5091556;28;20059;-76
2023/03/17 06:29:23;;;;;;;7.07;3.72;;;;;;;;;;5074350;28;20078;-75
2023/03/17 06:31:50;;;;;;;7.78;4.13;;;;;;;;;;5087467;28;20054;-75
2023/03/17 06:34:19;;;;;;;7.00;3.92;;;;;;;;;;5086433;28;20051;-76
2023/03/17 06:36:45;;;;;;;8.90;4.38;;;;;;;;;;5076633;28;20084;-75
2023/03/17 06:39:12;;;;;;;6.97;4.05;;;;;;;;;;5089964;28;20097;-75
2023/03/17 06:41:38;;;;;;;7.20;4.20;;;;;;;;;;5074954;28;20048;-75
2023/03/17 06:44:04;;;;;;;8.32;4.07;;;;;;;;;;5080274;28;20036;-76
2023/03/17 06:46:31;;;;;;;8.20;4.00;;;;;;;;;;5087716;28;20042;-76
2023/03/17 06:48:58;;;;;;;9.05;4.00;;;;;;;;;;5074702;28;20055;-75
2023/03/17 06:51:24;;;;;;;6.38;3.67;;;;;;;;;;5082456;28;20465;-76
2023/03/17 06:53:50;;;;;;;7.47;3.90;;;;;;;;;;5079826;28;20047;-76
2023/03/17 06:56:17;;;;;;;6.55;3.72;;;;;;;;;;5081772;28;20044;-75
2023/03/17 06:58:44;;;;;;;7.68;3.50;;;;;;;;;;5074173;28;20055;-76
2023/03/17 07:01:11;;;;;;;6.22;3.22;;;;;;;;;;5084579;28;20048;-76
2023/03/17 07:03:37;;;;;;;6.95;3.63;;;;;;;;;;5072740;28;20472;-76
2023/03/17 07:06:03;;;;;;;7.82;3.75;;;;;;;;;;5075853;28;20048;-77
2023/03/17 07:08:29;;;;;;;6.07;3.33;;;;;;;;;;5081752;28;20056;-76
2023/03/17 07:10:56;;;;;;;7.07;3.45;;;;;;;;;;5080289;28;20070;-76
2023/03/17 07:13:22;;;;;;;6.53;3.20;;;;;;;;;;5079505;28;20090;-76
2023/03/17 07:15:48;;;;;;;7.38;3.78;;;;;;;;;;5078224;28;20058;-76
2023/03/17 07:18:15;;;;;;;5.70;3.28;;;;;;;;;;5077235;28;20044;-76
2023/03/17 07:20:42;;;;;;;8.02;3.35;;;;;;;;;;5091083;28;20058;-76
2023/03/17 07:23:16;;;;;;;6.53;3.47;;;;;;;;;;5092701;28;20429;-76
2023/03/17 07:25:43;;;;;;;7.85;3.17;;;;;;;;;;5086254;28;20036;-75
2023/03/17 07:28:09;;;;;;;7.18;3.05;;;;;;;;;;5083149;28;20052;-76
2023/03/17 07:30:35;;;;;;;7.78;3.08;;;;;;;;;;5080792;28;20056;-76
2023/03/17 07:33:02;;;;;;;5.55;3.03;;;;;;;;;;5088449;28;20105;-76
2023/03/17 07:35:30;;;;;;;6.45;3.22;;;;;;;;;;5082715;28;20121;-75
2023/03/17 07:37:56;;;;;;;6.55;3.33;;;;;;;;;;5081460;28;20735;-76
2023/03/17 07:40:22;;;;;;;6.78;3.00;;;;;;;;;;5092103;28;20036;-76
2023/03/17 07:42:49;;;;;;;7.30;3.15;;;;;;;;;;5092763;28;20564;-76
2023/03/17 07:45:15;;;;;;;6.95;3.20;;;;;;;;;;5077438;28;20036;-75
2023/03/17 07:47:41;;;;;;;5.90;3.00;;;;;;;;;;5080251;28;20049;-76
2023/03/17 07:50:08;;;;;;;7.90;3.17;;;;;;;;;;5073256;28;20132;-76
2023/03/17 07:52:34;;;;;;;6.57;3.40;;;;;;;;;;5080205;28;20051;-76
2023/03/17 07:55:01;;;;;;;7.60;3.25;;;;;;;;;;5096441;28;20047;-76
2023/03/17 07:57:27;;;;;;;6.68;3.83;;;;;;;;;;5090290;28;20062;-75
2023/03/17 07:59:53;;;;;;;9.02;3.53;;;;;;;;;;5079970;28;20057;-76
2023/03/17 08:02:20;;;;;;;6.13;3.10;;;;;;;;;;5079484;28;20101;-76
2023/03/17 08:04:46;;;;;;;6.03;3.08;;;;;;;;;;5079566;28;20052;-76
2023/03/17 08:07:13;;;;;;;6.78;3.30;;;;;;;;;;5079819;28;20049;-76
2023/03/17 08:09:39;;;;;;;6.72;3.10;;;;;;;;;;5099449;28;20059;-76
2023/03/17 08:12:07;;;;;;;7.32;3.35;;;;;;;;;;5084529;28;20048;-76
2023/03/17 08:14:33;;;;;;;6.13;2.83;;;;;;;;;;5078936;28;20082;-76
2023/03/17 08:16:59;;;;;;;6.35;3.17;;;;;;;;;;5078025;28;20036;-76
2023/03/17 08:19:25;;;;;;;6.78;3.40;;;;;;;;;;5084479;28;20048;-76
2023/03/17 08:21:52;;;;;;;6.93;3.72;;;;;;;;;;5077806;28;20127;-76
2023/03/17 08:24:18;;;;;;;10.25;3.30;;;;;;;;;;5089111;28;20052;-76
2023/03/17 08:26:47;;;;;;;8.32;3.33;;;;;;;;;;5085590;28;20040;-76
2023/03/17 08:29:14;;;;;;;7.00;3.30;;;;;;;;;;5084190;28;20048;-77
2023/03/17 08:31:41;;;;;;;6.05;3.25;;;;;;;;;;5087185;28;20044;-76
2023/03/17 08:34:07;;;;;;;5.72;2.75;;;;;;;;;;5079588;28;20044;-76
2023/03/17 08:36:33;;;;;;;7.72;3.42;;;;;;;;;;5085349;28;20128;-76
2023/03/17 08:38:59;;;;;;;7.38;3.30;;;;;;;;;;5076328;28;20106;-76
2023/03/17 08:41:27;;;;;;;6.35;2.80;;;;;;;;;;5075716;28;20052;-76
2023/03/17 08:43:53;;;;;;;6.45;2.90;;;;;;;;;;5088121;28;20060;-76
2023/03/17 08:46:19;;;;;;;8.13;3.20;;;;;;;;;;5094615;28;20082;-76
2023/03/17 08:48:46;;;;;;;7.10;3.30;;;;;;;;;;5085532;28;20551;-77
2023/03/17 08:51:13;;;;;;;8.75;3.30;;;;;;;;;;5094202;28;20055;-76
2023/03/17 08:53:39;;;;;;;7.72;3.45;;;;;;;;;;5092891;28;20058;-76
2023/03/17 08:56:06;;;;;;;7.50;3.30;;;;;;;;;;5080272;28;20554;-76
2023/03/17 08:58:33;;;;;;;7.10;3.00;;;;;;;;;;5086273;28;20051;-76
2023/03/17 09:01:00;;;;;;;8.48;3.33;;;;;;;;;;5077653;28;20040;-76
2023/03/17 09:03:26;;;;;;;7.20;2.95;;;;;;;;;;5083213;28;20062;-76
2023/03/17 09:05:53;;;;;;;7.32;3.20;;;;;;;;;;5074630;28;20852;-76
2023/03/17 09:08:20;;;;;;;6.85;3.00;;;;;;;;;;5088421;28;20359;-76
2023/03/17 09:10:46;;;;;;;9.57;3.20;;;;;;;;;;5083885;28;20040;-76
2023/03/17 09:13:12;;;;;;;7.05;3.28;;;;;;;;;;5077454;28;20045;-77
2023/03/17 09:15:39;;;;;;;8.00;3.30;;;;;;;;;;5073319;28;20115;-77
2023/03/17 09:18:05;;;;;;;8.63;3.17;;;;;;;;;;5082196;28;20048;-77
2023/03/17 09:20:31;;;;;;;8.02;3.10;;;;;;;;;;5085128;28;20048;-76
2023/03/17 09:22:58;;;;;;;6.43;3.45;;;;;;;;;;5076966;28;20044;-77
2023/03/17 09:25:24;;;;;;;6.05;3.25;;;;;;;;;;5075971;28;20090;-77
2023/03/17 09:27:51;;;;;;;6.30;3.05;;;;;;;;;;5087037;28;20403;-77
2023/03/17 09:30:17;;;;;;;6.13;3.05;;;;;;;;;;5077492;28;20053;-76
2023/03/17 09:32:44;;;;;;;7.05;3.10;;;;;;;;;;5090192;28;20407;-76
2023/03/17 09:35:10;;;;;;;8.05;3.00;;;;;;;;;;5084074;28;20052;-76
2023/03/17 09:37:36;;;;;;;6.82;3.03;;;;;;;;;;5082231;28;20057;-77
2023/03/17 09:40:07;;;;;;;7.75;3.20;;;;;;;;;;5087227;28;20097;-77
2023/03/17 09:42:51;;;;;;;6.65;3.05;;;;;;;;;;5083600;28;20080;-77
2023/03/17 09:45:38;;;;;;;6.63;3.30;;;;;;;;;;5092805;28;20041;-76
2023/03/17 09:48:20;;;;;;;6.18;3.17;;;;;;;;;;5076587;28;20049;-77
2023/03/17 09:50:46;;;;;;;;;;;;;;;;;;5084213;28;20115;-77
2023/03/17 09:53:17;;;;;;;7.82;3.20;;;;;;;;;;5091526;28;19942;-76
2023/03/17 09:55:43;;;;;;;7.18;3.42;;;;;;;;;;5103169;28;20069;-77
2023/03/17 09:58:11;;;;;;;7.68;3.50;;;;;;;;;;5102516;28;20082;-77
2023/03/17 10:00:38;;;;;;;6.90;3.25;;;;;;;;;;5100698;28;20055;-77
2023/03/17 10:03:09;;;;;;;8.30;3.17;;;;;;;;;;5085569;28;20048;-77
2023/03/17 10:05:35;;;;;;;6.55;3.10;;;;;;;;;;5092578;28;20079;-77
2023/03/17 10:08:14;;;;;;;6.90;3.40;;;;;;;;;;5082191;28;20068;-77
2023/03/17 10:10:40;;;;;;;8.13;3.53;;;;;;;;;;5085870;28;20055;-77
2023/03/17 10:13:15;;;;;;;9.50;3.67;;;;;;;;;;5079917;28;20051;-76
2023/03/17 10:15:53;;;;;;;8.27;3.75;;;;;;;;;;5094333;28;20041;-77
2023/03/17 10:18:23;;;;;;;8.02;3.60;;;;;;;;;;5094096;28;20037;-77
2023/03/17 10:20:52;;;;;;;6.30;3.30;;;;;;;;;;5082455;28;20043;-76
2023/03/17 10:23:20;;;;;;;12.13;3.72;;;;;;;;;;5089688;28;20102;-77
2023/03/17 10:25:47;;;;;;;8.30;3.78;;;;;;;;;;5092666;28;20036;-77
2023/03/17 10:28:30;;;;;;;6.43;3.55;;;;;;;;;;5085163;28;20067;-77
2023/03/17 10:31:16;;;;;;;7.75;3.63;;;;;;;;;;5076998;28;20169;-77
2023/03/17 10:33:43;;;;;;;7.13;3.90;;;;;;;;;;5078879;28;20054;-77
2023/03/17 10:36:10;;;;;;;8.38;3.92;;;;;;;;;;5084720;28;20124;-77
2023/03/17 10:38:36;;;;;;;8.43;3.72;;;;;;;;;;5087992;28;20044;-77
2023/03/17 10:41:09;;;;;;;10.25;3.83;;;;;;;;;;5084010;28;20099;-77
2023/03/17 10:43:41;;;;;;;8.88;4.05;;;;;;;;;;5081860;28;20076;-77
2023/03/17 10:46:14;;;;;;;8.65;4.50;;;;;;;;;;5082069;28;20127;-77
2023/03/17 10:48:40;;;;;;;10.70;4.00;;;;;;;;;;5088213;28;20045;-77
2023/03/17 10:51:07;;;;;;;9.40;4.05;;;;;;;;;;5079580;28;20058;-78
2023/03/17 10:53:43;;;;;;;9.30;4.15;;;;;;;;;;5077995;28;20044;-77
2023/03/17 10:56:22;;;;;;;9.55;3.95;;;;;;;;;;5092441;28;20182;-77
2023/03/17 10:58:49;;;;;;;9.13;3.90;;;;;;;;;;5090122;28;20047;-77
2023/03/17 11:01:41;;;;;;;11.05;4.32;;;;;;;;;;5071797;28;20039;-78
2023/03/17 11:04:27;;;;;;;9.02;4.57;;;;;;;;;;5072833;28;20073;-77
2023/03/17 11:06:55;;;;;;;7.78;4.40;;;;;;;;;;5077456;28;20260;-78
2023/03/17 11:09:21;;;;;;;9.13;4.13;;;;;;;;;;5074673;28;20179;-77
2023/03/17 11:11:48;;;;;;;8.00;4.20;;;;;;;;;;5094062;28;20048;-79
2023/03/17 11:14:15;;;;;;;10.82;4.50;;;;;;;;;;5097617;28;20660;-80
2023/03/17 11:16:54;;;;;;;10.40;4.53;;;;;;;;;;5104719;28;20123;-79
2023/03/17 11:19:22;;;;;;;9.45;4.30;;;;;;;;;;5089596;28;20055;-79
2023/03/17 11:21:53;;;;;;;9.55;4.28;;;;;;;;;;5091734;28;20054;-80
2023/03/17 11:24:22;;;;;;;8.88;4.35;;;;;;;;;;5099341;28;20398;-79
2023/03/17 11:26:56;;;;;;;8.82;4.00;;;;;;;;;;5083623;28;20041;-79
2023/03/17 11:29:28;;;;;;;9.77;4.35;;;;;;;;;;5089834;28;20111;-79
2023/03/17 11:32:14;;;;;;;12.10;4.60;;;;;;;;;;5075460;28;20103;-79
2023/03/17 11:34:50;;;;;;;9.95;4.10;;;;;;;;;;5090792;28;20044;-79
2023/03/17 11:37:26;;;;;;;10.63;4.50;;;;;;;;;;5094432;28;20047;-79
2023/03/17 11:39:57;;;;;;;10.23;4.90;;;;;;;;;;5095660;28;20032;-79
2023/03/17 11:42:26;;;;;;;9.20;4.00;;;;;;;;;;5080736;28;20052;-79
2023/03/17 11:45:16;;;;;;;9.60;4.47;;;;;;;;;;5075195;28;20072;-79
2023/03/17 11:47:45;;;;;;;9.20;4.53;;;;;;;;;;5075151;28;20040;-79
2023/03/17 11:50:21;;;;;;;9.23;4.53;;;;;;;;;;5074768;28;20110;-79
2023/03/17 11:53:06;;;;;;;8.60;4.55;;;;;;;;;;5085552;28;20043;-66
2023/03/17 11:55:47;;;;;;;9.90;4.55;;;;;;;;;;5082949;28;20036;-66
2023/03/17 11:58:34;;;;;;;10.88;4.45;;;;;;;;;;5076092;28;20052;-66
2023/03/17 12:01:01;;;;;;;10.05;4.40;;;;;;;;;;5090618;28;20068;-66
2023/03/17 12:03:37;;;;;;;10.15;4.47;;;;;;;;;;5081181;28;20097;-66
2023/03/17 12:06:06;;;;;;;10.18;4.32;;;;;;;;;;5072307;28;20402;-66
2023/03/17 12:08:45;;;;;;;11.38;5.25;;;;;;;;;;5098055;27;20453;-66
2023/03/17 12:11:19;;;;;;;9.77;5.00;;;;;;;;;;5089473;28;20051;-66
2023/03/17 12:13:48;;;;;;;11.27;5.30;;;;;;;;;;5082251;28;20036;-67
2023/03/17 12:16:17;;;;;;;11.98;5.32;;;;;;;;;;5089101;28;20445;-65
2023/03/17 12:19:04;;;;;;;12.45;6.10;;;;;;;;;;5087732;28;20114;-65
2023/03/17 12:21:37;;;;;;;10.27;5.38;;;;;;;;;;5082192;28;20036;-65
2023/03/17 12:24:08;;;;;;;13.27;6.30;;;;;;;;;;5088136;28;20505;-66
2023/03/17 12:26:37;;;;;;;13.57;6.25;;;;;;;;;;5077971;28;20040;-65
2023/03/17 12:29:09;;;;;;;11.65;6.93;;;;;;;;;;5093130;28;20052;-65
2023/03/17 12:31:36;;;;;;;12.25;6.07;;;;;;;;;;5086663;28;20332;-65
2023/03/17 12:34:06;;;;;;;10.85;5.45;;;;;;;;;;5088422;28;20044;-66
2023/03/17 12:36:35;;;;;;;12.53;5.83;;;;;;;;;;5088625;28;20071;-66
2023/03/17 12:39:06;;;;;;;11.43;6.13;;;;;;;;;;5087593;28;20044;-65
2023/03/17 12:41:51;;;;;;;13.73;5.82;;;;;;;;;;5087931;28;20052;-65
2023/03/17 12:44:20;;;;;;;9.05;4.90;;;;;;;;;;5103509;28;20233;-65
2023/03/17 12:46:55;;;;;;;11.43;5.32;;;;;;;;;;5100784;28;20449;-65
2023/03/17 12:49:38;;;;;;;17.92;9.57;;;;;;;;;;5088299;28;20105;-65
2023/03/17 12:52:23;;;;;;;21.02;13.55;;;;;;;;;;5087894;28;20375;-65
2023/03/17 12:54:50;;;;;;;11.18;6.72;;;;;;;;;;5076929;28;20144;-65
2023/03/17 12:57:21;;;;;;;15.05;6.82;;;;;;;;;;5088444;28;20059;-65
2023/03/17 12:59:57;;;;;;;10.27;6.00;;;;;;;;;;5103590;28;20097;-65
2023/03/17 13:02:29;;;;;;;10.95;6.43;;;;;;;;;;5088556;28;20047;-67
2023/03/17 13:04:59;;;;;;;11.93;6.75;;;;;;;;;;5088210;28;20052;-66
2023/03/17 13:07:26;;;;;;;11.55;5.85;;;;;;;;;;5087412;28;20063;-65
2023/03/17 13:09:55;;;;;;;10.68;6.78;;;;;;;;;;5088083;28;20063;-65
2023/03/17 13:12:43;;;;;;;15.48;6.15;;;;;;;;;;5087605;28;20054;-65
2023/03/17 13:15:25;;;;;;;10.57;6.10;;;;;;;;;;5087055;28;20494;-65
2023/03/17 13:18:09;;;;;;;11.88;5.68;;;;;;;;;;5074342;28;20071;-65
2023/03/17 13:20:37;;;;;;;10.18;5.07;;;;;;;;;;5054271;28;20045;-65
2023/03/17 13:23:12;;;;;;;9.40;5.07;;;;;;;;;;5051705;28;20048;-65
2023/03/17 13:25:38;;;;;;;9.43;5.57;;;;;;;;;;5076989;28;20071;-64
2023/03/17 13:28:13;;;;;;;11.43;6.85;;;;;;;;;;5083290;28;20044;-64
2023/03/17 13:30:40;;;;;;;10.05;5.75;;;;;;;;;;5089769;28;20094;-64
2023/03/17 13:33:09;;;;;;;9.75;5.40;;;;;;;;;;5056386;28;20044;-76
2023/03/17 13:35:53;;;;;;;10.57;5.55;;;;;;;;;;5085182;28;20119;-75
2023/03/17 13:38:22;;;;;;;10.07;5.20;;;;;;;;;;5074148;28;20060;-77
2023/03/17 13:40:54;;;;;;;9.90;4.82;;;;;;;;;;5075057;28;20041;-77
2023/03/17 13:43:33;;;;;;;10.38;5.93;;;;;;;;;;5078698;28;20052;-77
2023/03/17 13:46:18;;;;;;;9.95;5.05;;;;;;;;;;5094444;28;20490;-78
2023/03/17 13:48:44;;;;;;;9.70;5.28;;;;;;;;;;5063909;28;20046;-78
2023/03/17 13:51:11;;;;;;;8.95;5.82;;;;;;;;;;5067844;28;20044;-78
2023/03/17 13:53:42;;;;;;;9.00;5.88;;;;;;;;;;5074647;28;20048;-78
2023/03/17 13:56:45;;;;;;;11.43;6.22;;;;;;;;;;5074203;28;20045;-78
2023/03/17 13:59:16;;;;;;;10.10;5.40;;;;;;;;;;5066138;28;20137;-77
2023/03/17 14:01:46;;;;;;;8.88;5.00;;;;;;;;;;5070972;28;20537;-78
2023/03/17 14:04:20;;;;;;;8.68;4.95;;;;;;;;;;5072079;28;20046;-78
2023/03/17 14:06:49;;;;;;;9.35;5.07;;;;;;;;;;5072278;28;20075;-77
2023/03/17 14:09:21;;;;;;;10.27;5.72;;;;;;;;;;5073690;28;20509;-78
2023/03/17 14:11:47;;;;;;;9.50;5.30;;;;;;;;;;5079488;28;20040;-78
2023/03/17 14:14:16;;;;;;;9.82;4.78;;;;;;;;;;5067547;28;20036;-78
2023/03/17 14:17:00;;;;;;;9.50;5.20;;;;;;;;;;5066292;28;20123;-78
2023/03/17 14:19:28;;;;;;;8.95;5.00;;;;;;;;;;5073856;28;20045;-77
2023/03/17 14:21:55;;;;;;;8.90;5.55;;;;;;;;;;5060572;28;20448;-77
2023/03/17 14:24:23;;;;;;;10.93;5.50;;;;;;;;;;5053601;28;20060;-78
2023/03/17 14:26:51;;;;;;;11.45;5.88;;;;;;;;;;5053437;28;20045;-78
2023/03/17 14:29:19;;;;;;;10.07;5.03;;;;;;;;;;5069260;28;20045;-78
2023/03/17 14:31:51;;;;;;;10.63;5.20;;;;;;;;;;5072392;28;20491;-78
2023/03/17 14:34:20;;;;;;;9.27;5.22;;;;;;;;;;5072304;28;20447;-78
2023/03/17 14:36:46;;;;;;;9.05;5.50;;;;;;;;;;5073393;28;20080;-78
2023/03/17 14:39:20;;;;;;;10.32;5.68;;;;;;;;;;5073691;28;20119;-77
2023/03/17 14:41:56;;;;;;;13.60;5.63;;;;;;;;;;5056274;28;20444;-78
2023/03/17 14:44:22;;;;;;;10.55;5.78;;;;;;;;;;5072235;28;20071;-78
2023/03/17 14:46:48;;;;;;;9.13;5.57;;;;;;;;;;5093713;28;20040;-78
2023/03/17 14:49:18;;;;;;;9.38;4.90;;;;;;;;;;5068420;28;20132;-78
2023/03/17 14:51:44;;;;;;;8.90;5.47;;;;;;;;;;5053263;28;20542;-78